Time;durP1;ratioP1;P1;durP2;ratioP2;P2;SDS_P1;SDS_P2;PMS_P1;PMS_P2;Temp;Humidity;BMP_temperature;BMP_pressure;BME280_temperature;BME280_humidity;BME280_pressure;Samples;Min_cycle;Max_cycle;Signal;HPM_P1;HPM_P2
2023/05/15 00:01:47;;;;;;;10.95;3.92;;;;;;;;;;4960569;28;20611;-62
2023/05/15 00:04:17;;;;;;;11.07;3.58;;;;;;;;;;4992855;28;20050;-63
2023/05/15 00:06:47;;;;;;;11.10;4.35;;;;;;;;;;4938091;29;20522;-63
2023/05/15 00:09:18;;;;;;;10.80;3.67;;;;;;;;;;4922748;29;20407;-63
2023/05/15 00:11:48;;;;;;;8.38;3.83;;;;;;;;;;4937902;29;20066;-64
2023/05/15 00:14:18;;;;;;;8.48;4.00;;;;;;;;;;4921888;29;20439;-64
2023/05/15 00:16:49;;;;;;;7.43;3.90;;;;;;;;;;4953767;29;20047;-65
2023/05/15 00:19:20;;;;;;;11.52;3.40;;;;;;;;;;4921953;29;20062;-64
2023/05/15 00:21:51;;;;;;;8.80;3.63;;;;;;;;;;4963127;28;20059;-63
2023/05/15 00:24:21;;;;;;;9.35;4.15;;;;;;;;;;4973155;28;20071;-63
2023/05/15 00:26:51;;;;;;;9.38;3.38;;;;;;;;;;4941005;28;20051;-63
2023/05/15 00:29:23;;;;;;;9.82;4.13;;;;;;;;;;4941027;28;20102;-63
2023/05/15 00:31:53;;;;;;;8.35;3.35;;;;;;;;;;4972736;28;20078;-63
2023/05/15 00:34:25;;;;;;;;;;;;;;;;;;4934710;29;20062;-63
2023/05/15 00:36:55;;;;;;;8.50;3.58;;;;;;;;;;4934728;29;20425;-63
2023/05/15 00:39:25;;;;;;;10.63;3.72;;;;;;;;;;4887757;29;20551;-63
2023/05/15 00:41:57;;;;;;;12.05;3.92;;;;;;;;;;4934264;29;20055;-63
2023/05/15 00:44:33;;;;;;;9.25;3.70;;;;;;;;;;4883681;29;20052;-64
2023/05/15 00:47:04;;;;;;;9.07;3.88;;;;;;;;;;4915065;29;20064;-63
2023/05/15 00:49:36;;;;;;;7.93;3.58;;;;;;;;;;4915338;29;20064;-63
2023/05/15 00:52:07;;;;;;;9.05;3.50;;;;;;;;;;4899212;29;20048;-63
2023/05/15 00:54:37;;;;;;;12.00;4.05;;;;;;;;;;4914905;29;20063;-63
2023/05/15 00:57:08;;;;;;;7.80;3.65;;;;;;;;;;4883329;29;20745;-63
2023/05/15 00:59:39;;;;;;;10.15;4.13;;;;;;;;;;4914997;29;20060;-64
2023/05/15 01:02:09;;;;;;;9.35;3.45;;;;;;;;;;4914898;29;20420;-64
2023/05/15 01:04:40;;;;;;;9.88;4.00;;;;;;;;;;4883497;29;20456;-63
2023/05/15 01:07:10;;;;;;;9.05;3.65;;;;;;;;;;4914662;29;20048;-63
2023/05/15 01:09:43;;;;;;;17.55;3.75;;;;;;;;;;4914526;29;20520;-63
2023/05/15 01:12:16;;;;;;;7.47;3.55;;;;;;;;;;4920523;29;20051;-63
2023/05/15 01:14:48;;;;;;;9.13;3.30;;;;;;;;;;4921165;29;20086;-63
2023/05/15 01:17:18;;;;;;;10.05;3.40;;;;;;;;;;4952509;29;20058;-63
2023/05/15 01:19:51;;;;;;;9.45;3.42;;;;;;;;;;4933344;29;20055;-63
2023/05/15 01:22:51;;;;;;;9.15;3.70;;;;;;;;;;4845332;29;20053;-63
2023/05/15 01:25:53;;;;;;;10.95;3.38;;;;;;;;;;4857858;29;20399;-63
2023/05/15 01:28:35;;;;;;;9.25;4.15;;;;;;;;;;4842765;29;20065;-64
2023/05/15 01:31:15;;;;;;;8.60;3.58;;;;;;;;;;4840017;29;20058;-63
2023/05/15 01:33:49;;;;;;;14.27;3.92;;;;;;;;;;4876492;29;20196;-63
2023/05/15 01:36:46;;;;;;;11.80;4.28;;;;;;;;;;4876491;29;20053;-63
2023/05/15 01:39:22;;;;;;;8.40;4.28;;;;;;;;;;4876535;29;20049;-63
2023/05/15 01:42:06;;;;;;;7.47;3.15;;;;;;;;;;4816912;29;20072;-63
2023/05/15 01:44:45;;;;;;;6.72;3.65;;;;;;;;;;4861045;29;20057;-63
2023/05/15 01:47:21;;;;;;;8.20;3.65;;;;;;;;;;4875991;29;20068;-63
2023/05/15 01:49:54;;;;;;;8.10;3.58;;;;;;;;;;4876170;29;20061;-63
2023/05/15 01:52:37;;;;;;;8.27;4.07;;;;;;;;;;4824140;29;20053;-63
2023/05/15 01:55:09;;;;;;;6.78;3.78;;;;;;;;;;4824332;29;20182;-63
2023/05/15 01:57:42;;;;;;;9.55;3.85;;;;;;;;;;4806213;29;20094;-63
2023/05/15 02:00:14;;;;;;;10.05;3.70;;;;;;;;;;4856918;29;20589;-63
2023/05/15 02:02:45;;;;;;;8.55;3.75;;;;;;;;;;4885466;29;20421;-63
2023/05/15 02:05:18;;;;;;;10.25;4.20;;;;;;;;;;4894644;29;20049;-63
2023/05/15 02:07:49;;;;;;;8.02;3.60;;;;;;;;;;4870871;29;20058;-63
2023/05/15 02:10:20;;;;;;;8.23;3.15;;;;;;;;;;4863374;29;20055;-65
2023/05/15 02:12:51;;;;;;;6.25;3.30;;;;;;;;;;4894335;29;20060;-64
2023/05/15 02:15:23;;;;;;;7.47;3.67;;;;;;;;;;4875749;29;20053;-64
2023/05/15 02:17:55;;;;;;;8.77;3.65;;;;;;;;;;4894171;29;20097;-64
2023/05/15 02:20:25;;;;;;;7.57;3.55;;;;;;;;;;4894180;29;20072;-64
2023/05/15 02:22:56;;;;;;;8.60;4.15;;;;;;;;;;4856639;29;20514;-65
2023/05/15 02:26:09;;;;;;;9.98;3.88;;;;;;;;;;4836667;29;20052;-64
2023/05/15 02:28:58;;;;;;;11.63;3.35;;;;;;;;;;4838600;29;20207;-64
2023/05/15 02:31:42;;;;;;;8.40;3.25;;;;;;;;;;4820309;29;20062;-63
2023/05/15 02:34:26;;;;;;;7.57;3.50;;;;;;;;;;4820582;29;20065;-64
2023/05/15 02:37:00;;;;;;;10.20;4.13;;;;;;;;;;4805078;29;20058;-63
2023/05/15 02:39:31;;;;;;;7.30;3.42;;;;;;;;;;4754343;29;20062;-64
2023/05/15 02:42:02;;;;;;;9.40;3.97;;;;;;;;;;4781997;29;20055;-63
2023/05/15 02:44:36;;;;;;;7.82;3.28;;;;;;;;;;4736329;30;20055;-63
2023/05/15 02:47:07;;;;;;;10.65;3.38;;;;;;;;;;4763954;30;20060;-63
2023/05/15 02:49:39;;;;;;;8.25;3.60;;;;;;;;;;4748466;30;20071;-64
2023/05/15 02:52:09;;;;;;;8.70;3.88;;;;;;;;;;4743455;30;20060;-63
2023/05/15 02:54:39;;;;;;;10.52;3.70;;;;;;;;;;4748206;30;20060;-64
2023/05/15 02:57:09;;;;;;;10.27;3.67;;;;;;;;;;4719172;30;20064;-63
2023/05/15 02:59:40;;;;;;;8.45;3.70;;;;;;;;;;4752638;30;20510;-63
2023/05/15 03:02:12;;;;;;;7.97;3.67;;;;;;;;;;4782218;30;20075;-63
2023/05/15 03:04:42;;;;;;;8.10;4.22;;;;;;;;;;4811271;29;20511;-63
2023/05/15 03:07:14;;;;;;;10.45;4.05;;;;;;;;;;4838267;29;20054;-63
2023/05/15 03:09:44;;;;;;;8.23;3.80;;;;;;;;;;4866904;29;20077;-63
2023/05/15 03:12:16;;;;;;;12.73;4.10;;;;;;;;;;4875435;29;20065;-63
2023/05/15 03:14:46;;;;;;;9.32;3.67;;;;;;;;;;4838038;29;20053;-63
2023/05/15 03:17:17;;;;;;;7.22;3.50;;;;;;;;;;4815065;29;20054;-63
2023/05/15 03:19:47;;;;;;;7.70;3.28;;;;;;;;;;4819584;29;20054;-63
2023/05/15 03:22:17;;;;;;;7.57;3.47;;;;;;;;;;4819950;29;20061;-64
2023/05/15 03:24:47;;;;;;;10.20;3.50;;;;;;;;;;4837931;29;20057;-64
2023/05/15 03:27:17;;;;;;;8.27;3.65;;;;;;;;;;4786485;29;20292;-63
2023/05/15 03:29:49;;;;;;;8.55;4.03;;;;;;;;;;4792568;29;20067;-65
2023/05/15 03:32:19;;;;;;;9.48;3.65;;;;;;;;;;4820843;29;20057;-63
2023/05/15 03:34:50;;;;;;;8.45;3.83;;;;;;;;;;4795952;29;20069;-65
2023/05/15 03:37:20;;;;;;;9.70;3.55;;;;;;;;;;4841810;29;20530;-64
2023/05/15 03:39:50;;;;;;;10.35;4.50;;;;;;;;;;4822940;29;20062;-63
2023/05/15 03:42:22;;;;;;;11.48;3.85;;;;;;;;;;4841488;29;20068;-64
2023/05/15 03:44:52;;;;;;;7.85;3.72;;;;;;;;;;4830328;29;20057;-64
2023/05/15 03:47:24;;;;;;;9.25;3.70;;;;;;;;;;4860121;29;20053;-64
2023/05/15 03:49:55;;;;;;;10.32;4.25;;;;;;;;;;4878109;29;20049;-65
2023/05/15 03:52:25;;;;;;;9.40;4.20;;;;;;;;;;4887344;29;20068;-63
2023/05/15 03:54:55;;;;;;;8.02;3.88;;;;;;;;;;4906379;29;20064;-63
2023/05/15 03:57:26;;;;;;;7.72;3.42;;;;;;;;;;4922073;28;20055;-64
2023/05/15 03:59:56;;;;;;;8.80;3.67;;;;;;;;;;4915916;29;20052;-63
2023/05/15 04:02:26;;;;;;;9.95;3.92;;;;;;;;;;4915678;29;20059;-63
2023/05/15 04:04:56;;;;;;;9.48;3.90;;;;;;;;;;4897017;29;20064;-63
2023/05/15 04:07:26;;;;;;;9.40;3.72;;;;;;;;;;4862239;29;20053;-63
2023/05/15 04:10:00;;;;;;;6.82;3.30;;;;;;;;;;4896518;29;20515;-64
2023/05/15 04:12:32;;;;;;;6.95;3.42;;;;;;;;;;4899861;29;20048;-63
2023/05/15 04:15:18;;;;;;;;;;;;;;;;;;4916320;29;20060;-63
2023/05/15 04:17:50;;;;;;;8.10;3.38;;;;;;;;;;4915812;29;19954;-64
2023/05/15 04:20:23;;;;;;;6.97;3.38;;;;;;;;;;4868487;29;20056;-64
2023/05/15 04:22:53;;;;;;;6.07;2.85;;;;;;;;;;4899950;29;20056;-63
2023/05/15 04:25:23;;;;;;;7.97;3.50;;;;;;;;;;4915540;29;20075;-63
2023/05/15 04:27:55;;;;;;;8.20;3.28;;;;;;;;;;4952412;28;20063;-63
2023/05/15 04:30:25;;;;;;;9.52;3.45;;;;;;;;;;4972969;28;20057;-64
2023/05/15 04:32:55;;;;;;;9.55;3.83;;;;;;;;;;4924702;28;20051;-64
2023/05/15 04:35:26;;;;;;;7.30;3.25;;;;;;;;;;4956613;28;20102;-63
2023/05/15 04:37:56;;;;;;;8.13;3.63;;;;;;;;;;4936976;28;20557;-63
2023/05/15 04:40:26;;;;;;;7.43;3.50;;;;;;;;;;4985164;28;20073;-63
2023/05/15 04:42:56;;;;;;;9.18;3.70;;;;;;;;;;4984398;28;20054;-64
2023/05/15 04:45:27;;;;;;;8.48;3.65;;;;;;;;;;5033321;28;20049;-65
2023/05/15 04:47:57;;;;;;;8.75;3.45;;;;;;;;;;5015643;28;20054;-64
2023/05/15 04:50:27;;;;;;;9.88;3.70;;;;;;;;;;5033782;28;20049;-63
2023/05/15 04:52:57;;;;;;;7.90;3.25;;;;;;;;;;5033744;28;20034;-63
2023/05/15 04:55:27;;;;;;;10.93;3.47;;;;;;;;;;5033975;28;20045;-63
2023/05/15 04:57:59;;;;;;;7.53;3.15;;;;;;;;;;5034002;28;20393;-63
2023/05/15 05:00:29;;;;;;;9.55;3.80;;;;;;;;;;4998782;28;20517;-64
2023/05/15 05:03:00;;;;;;;9.40;3.30;;;;;;;;;;4943311;28;20062;-63
2023/05/15 05:05:30;;;;;;;10.15;3.10;;;;;;;;;;4991890;28;20054;-63
2023/05/15 05:08:00;;;;;;;6.88;3.75;;;;;;;;;;4959857;28;20423;-64
2023/05/15 05:10:30;;;;;;;10.50;3.50;;;;;;;;;;4991578;28;20053;-63
2023/05/15 05:13:00;;;;;;;8.57;3.67;;;;;;;;;;4991606;28;20054;-63
2023/05/15 05:15:30;;;;;;;8.50;3.50;;;;;;;;;;4991609;28;20054;-63
2023/05/15 05:18:01;;;;;;;11.13;4.00;;;;;;;;;;4959973;28;20058;-63
2023/05/15 05:20:31;;;;;;;7.93;3.17;;;;;;;;;;4991585;28;20511;-63
2023/05/15 05:23:01;;;;;;;9.48;3.38;;;;;;;;;;4991500;28;20061;-64
2023/05/15 05:25:31;;;;;;;8.20;3.30;;;;;;;;;;4975312;28;20058;-64
2023/05/15 05:28:01;;;;;;;8.43;3.25;;;;;;;;;;4991250;28;20162;-64
2023/05/15 05:30:31;;;;;;;6.68;3.03;;;;;;;;;;4975019;28;20051;-64
2023/05/15 05:33:01;;;;;;;9.35;3.25;;;;;;;;;;4991194;28;20055;-64
2023/05/15 05:35:32;;;;;;;7.43;3.28;;;;;;;;;;4927381;28;20054;-64
2023/05/15 05:38:03;;;;;;;6.75;2.78;;;;;;;;;;4958800;28;20069;-64
2023/05/15 05:40:33;;;;;;;7.43;2.75;;;;;;;;;;4977728;28;20041;-64
2023/05/15 05:43:04;;;;;;;6.97;2.88;;;;;;;;;;5014221;28;20045;-63
2023/05/15 05:45:34;;;;;;;9.48;3.13;;;;;;;;;;4998533;28;20120;-64
2023/05/15 05:48:04;;;;;;;8.65;3.55;;;;;;;;;;5032802;28;20531;-64
2023/05/15 05:50:36;;;;;;;9.00;3.47;;;;;;;;;;5032722;28;20037;-63
2023/05/15 05:53:06;;;;;;;7.90;3.28;;;;;;;;;;4981119;28;20505;-64
2023/05/15 05:55:36;;;;;;;7.53;3.42;;;;;;;;;;4980807;28;20453;-65
2023/05/15 05:58:06;;;;;;;7.30;2.92;;;;;;;;;;5014310;28;20050;-63
2023/05/15 06:00:52;;;;;;;6.03;2.85;;;;;;;;;;5032615;28;20044;-63
2023/05/15 06:03:23;;;;;;;7.75;2.92;;;;;;;;;;4950124;28;20054;-64
2023/05/15 06:05:55;;;;;;;8.15;3.50;;;;;;;;;;4965083;28;20065;-63
2023/05/15 06:08:24;;;;;;;8.13;3.20;;;;;;;;;;4997305;28;20069;-64
2023/05/15 06:10:54;;;;;;;7.50;3.55;;;;;;;;;;4981057;28;20054;-63
2023/05/15 06:13:24;;;;;;;8.32;3.10;;;;;;;;;;4982258;28;20497;-64
2023/05/15 06:15:54;;;;;;;7.80;3.08;;;;;;;;;;5032126;28;20053;-64
2023/05/15 06:18:25;;;;;;;7.68;3.10;;;;;;;;;;4997205;28;20053;-64
2023/05/15 06:20:57;;;;;;;10.32;3.35;;;;;;;;;;4997269;28;20057;-64
2023/05/15 06:23:28;;;;;;;8.07;3.10;;;;;;;;;;5031920;28;20048;-64
2023/05/15 06:26:00;;;;;;;7.50;3.30;;;;;;;;;;4980932;28;20064;-64
2023/05/15 06:28:30;;;;;;;8.77;3.10;;;;;;;;;;5012923;28;20045;-64
2023/05/15 06:31:00;;;;;;;7.72;2.97;;;;;;;;;;5031936;28;20397;-64
2023/05/15 06:33:30;;;;;;;7.93;3.08;;;;;;;;;;5031976;28;20045;-64
2023/05/15 06:36:01;;;;;;;8.32;3.30;;;;;;;;;;5031991;28;20053;-64
2023/05/15 06:38:31;;;;;;;5.88;2.88;;;;;;;;;;5031861;28;20049;-63
2023/05/15 06:41:01;;;;;;;7.13;2.83;;;;;;;;;;5031816;28;20513;-63
2023/05/15 06:43:31;;;;;;;6.47;3.05;;;;;;;;;;4981921;28;20417;-64
2023/05/15 06:46:03;;;;;;;6.85;3.22;;;;;;;;;;4997112;28;20395;-63
2023/05/15 06:48:33;;;;;;;7.63;3.22;;;;;;;;;;5031711;28;20045;-63
2023/05/15 06:51:03;;;;;;;6.75;3.13;;;;;;;;;;5031818;28;20164;-63
2023/05/15 06:53:34;;;;;;;7.70;3.35;;;;;;;;;;5031459;28;20406;-64
2023/05/15 06:56:05;;;;;;;9.80;3.45;;;;;;;;;;5031885;28;20049;-63
2023/05/15 06:58:36;;;;;;;7.80;3.28;;;;;;;;;;4950055;28;20057;-64
2023/05/15 07:01:08;;;;;;;6.38;2.80;;;;;;;;;;5014608;28;20045;-64
2023/05/15 07:03:39;;;;;;;8.63;3.28;;;;;;;;;;5031716;28;20041;-63
2023/05/15 07:06:09;;;;;;;7.55;3.10;;;;;;;;;;4996525;28;20513;-64
2023/05/15 07:08:38;;;;;;;7.75;3.22;;;;;;;;;;4996226;28;20068;-63
2023/05/15 07:11:08;;;;;;;6.32;2.95;;;;;;;;;;4980592;28;20520;-64
2023/05/15 07:13:40;;;;;;;6.88;3.22;;;;;;;;;;4938064;28;20065;-64
2023/05/15 07:16:10;;;;;;;8.50;3.20;;;;;;;;;;4970355;28;20059;-64
2023/05/15 07:18:40;;;;;;;7.68;3.22;;;;;;;;;;4970112;28;20058;-63
2023/05/15 07:21:10;;;;;;;7.15;3.08;;;;;;;;;;4970298;28;20082;-63
2023/05/15 07:23:40;;;;;;;6.53;2.85;;;;;;;;;;4922448;28;20503;-64
2023/05/15 07:26:12;;;;;;;6.65;2.88;;;;;;;;;;4938567;28;20487;-64
2023/05/15 07:28:55;;;;;;;7.18;3.03;;;;;;;;;;4955869;28;20066;-63
2023/05/15 07:31:25;;;;;;;6.95;2.92;;;;;;;;;;4970207;28;20051;-64
2023/05/15 07:33:55;;;;;;;7.03;2.95;;;;;;;;;;4923047;28;20057;-64
2023/05/15 07:36:26;;;;;;;7.35;3.25;;;;;;;;;;4938069;28;20060;-63
2023/05/15 07:38:56;;;;;;;9.07;3.75;;;;;;;;;;4953607;28;20047;-63
2023/05/15 07:41:26;;;;;;;7.80;3.40;;;;;;;;;;4970058;28;20070;-64
2023/05/15 07:43:56;;;;;;;7.35;3.13;;;;;;;;;;4941139;28;20513;-64
2023/05/15 07:46:27;;;;;;;8.32;3.45;;;;;;;;;;4956980;28;20057;-64
2023/05/15 07:48:57;;;;;;;7.97;3.67;;;;;;;;;;4989359;28;20054;-64
2023/05/15 07:51:28;;;;;;;6.72;3.00;;;;;;;;;;4956924;28;20423;-64
2023/05/15 07:53:58;;;;;;;7.72;3.35;;;;;;;;;;4989333;28;20403;-64
2023/05/15 07:56:28;;;;;;;9.52;3.63;;;;;;;;;;4989360;28;20533;-64
2023/05/15 07:58:58;;;;;;;11.02;3.28;;;;;;;;;;4989613;28;20069;-64
2023/05/15 08:01:28;;;;;;;8.43;2.85;;;;;;;;;;4989323;28;20059;-64
2023/05/15 08:04:00;;;;;;;9.02;3.00;;;;;;;;;;4972777;28;20507;-63
2023/05/15 08:06:31;;;;;;;6.68;3.85;;;;;;;;;;4972627;28;20062;-64
2023/05/15 08:09:03;;;;;;;5.82;2.90;;;;;;;;;;4989051;28;20054;-64
2023/05/15 08:11:33;;;;;;;10.45;3.70;;;;;;;;;;4989181;28;20375;-64
2023/05/15 08:14:03;;;;;;;6.30;2.92;;;;;;;;;;4956582;28;20490;-63
2023/05/15 08:16:33;;;;;;;8.15;3.20;;;;;;;;;;4988891;28;20046;-63
2023/05/15 08:19:06;;;;;;;7.15;2.80;;;;;;;;;;4941474;28;20066;-63
2023/05/15 08:21:36;;;;;;;7.40;3.63;;;;;;;;;;5006360;28;20111;-63
2023/05/15 08:24:06;;;;;;;7.90;3.08;;;;;;;;;;5034449;28;20057;-63
2023/05/15 08:26:36;;;;;;;8.38;3.13;;;;;;;;;;5034106;28;20056;-63
2023/05/15 08:29:06;;;;;;;7.38;3.25;;;;;;;;;;5034249;28;20057;-64
2023/05/15 08:31:36;;;;;;;5.25;2.55;;;;;;;;;;5034003;28;20050;-63
2023/05/15 08:34:06;;;;;;;8.93;3.75;;;;;;;;;;5034428;28;20057;-63
2023/05/15 08:36:37;;;;;;;8.05;3.35;;;;;;;;;;5033946;28;20034;-63
2023/05/15 08:39:08;;;;;;;7.88;3.17;;;;;;;;;;5034194;28;20060;-63
2023/05/15 08:42:02;;;;;;;8.10;3.20;;;;;;;;;;5033867;28;20045;-64
2023/05/15 08:44:33;;;;;;;8.18;3.40;;;;;;;;;;4953389;29;20051;-63
2023/05/15 08:47:04;;;;;;;7.95;3.22;;;;;;;;;;4953441;29;20055;-63
2023/05/15 08:50:04;;;;;;;7.25;2.80;;;;;;;;;;4936852;29;20059;-64
2023/05/15 08:52:35;;;;;;;7.05;3.08;;;;;;;;;;4905905;29;20462;-63
2023/05/15 08:55:05;;;;;;;8.35;3.35;;;;;;;;;;4936951;29;20194;-63
2023/05/15 08:57:36;;;;;;;6.60;3.03;;;;;;;;;;4905574;29;20051;-62
2023/05/15 09:00:08;;;;;;;6.65;2.88;;;;;;;;;;4921251;29;20082;-63
2023/05/15 09:02:39;;;;;;;7.68;3.33;;;;;;;;;;4920972;29;20512;-63
2023/05/15 09:05:10;;;;;;;5.97;2.83;;;;;;;;;;4953065;29;20051;-63
2023/05/15 09:07:43;;;;;;;9.55;3.10;;;;;;;;;;4921039;29;20055;-63
2023/05/15 09:10:15;;;;;;;6.63;3.17;;;;;;;;;;4914784;29;20436;-63
2023/05/15 09:12:45;;;;;;;7.80;3.15;;;;;;;;;;4914842;29;20052;-63
2023/05/15 09:15:20;;;;;;;6.93;3.10;;;;;;;;;;4914460;29;20056;-63
2023/05/15 09:17:51;;;;;;;7.93;3.40;;;;;;;;;;4914842;29;20063;-63
2023/05/15 09:20:32;;;;;;;8.15;3.28;;;;;;;;;;4914674;29;20056;-63
2023/05/15 09:23:04;;;;;;;8.02;3.22;;;;;;;;;;4910102;28;20055;-63
2023/05/15 09:25:38;;;;;;;8.25;3.33;;;;;;;;;;4902745;29;20446;-63
2023/05/15 09:28:28;;;;;;;7.85;3.60;;;;;;;;;;4933592;29;20048;-63
2023/05/15 09:31:02;;;;;;;8.07;3.42;;;;;;;;;;4933383;29;20051;-63
2023/05/15 09:33:41;;;;;;;8.30;3.63;;;;;;;;;;4933471;29;20055;-63
2023/05/15 09:36:21;;;;;;;8.27;3.75;;;;;;;;;;4933414;29;20058;-64
2023/05/15 09:38:58;;;;;;;8.00;3.05;;;;;;;;;;4933375;29;20047;-63
2023/05/15 09:41:30;;;;;;;9.13;4.32;;;;;;;;;;4901963;29;20072;-63
2023/05/15 09:44:00;;;;;;;6.65;3.22;;;;;;;;;;4933221;29;20512;-62
2023/05/15 09:46:35;;;;;;;10.50;3.55;;;;;;;;;;4933290;29;20576;-63
2023/05/15 09:49:05;;;;;;;8.68;3.58;;;;;;;;;;4974819;28;20144;-63
2023/05/15 09:51:35;;;;;;;8.68;3.53;;;;;;;;;;4990748;28;20042;-63
2023/05/15 09:54:10;;;;;;;7.70;3.58;;;;;;;;;;4990717;28;20042;-63
2023/05/15 09:56:46;;;;;;;6.80;2.97;;;;;;;;;;4975495;28;20055;-62
2023/05/15 09:59:20;;;;;;;9.30;3.83;;;;;;;;;;4990665;28;20050;-63
2023/05/15 10:01:51;;;;;;;8.25;3.60;;;;;;;;;;4958222;28;20050;-63
2023/05/15 10:04:21;;;;;;;7.65;3.88;;;;;;;;;;5030855;28;20057;-62
2023/05/15 10:06:52;;;;;;;10.20;4.05;;;;;;;;;;5032145;28;20495;-60
2023/05/15 10:09:28;;;;;;;9.80;4.55;;;;;;;;;;5014663;28;20049;-63
2023/05/15 10:11:58;;;;;;;10.18;4.80;;;;;;;;;;4997172;28;20490;-63
2023/05/15 10:14:30;;;;;;;9.48;4.72;;;;;;;;;;5032193;28;20052;-62
2023/05/15 10:17:00;;;;;;;10.80;4.63;;;;;;;;;;5013679;28;20548;-62
2023/05/15 10:19:30;;;;;;;7.63;3.58;;;;;;;;;;4980675;28;20512;-62
2023/05/15 10:22:03;;;;;;;9.35;4.30;;;;;;;;;;5031975;28;20777;-60
2023/05/15 10:24:35;;;;;;;9.15;3.90;;;;;;;;;;5031883;28;20042;-62
2023/05/15 10:27:08;;;;;;;7.72;3.35;;;;;;;;;;5032033;28;20045;-60
2023/05/15 10:29:40;;;;;;;11.05;3.55;;;;;;;;;;5031921;28;20049;-60
2023/05/15 10:32:11;;;;;;;13.18;4.28;;;;;;;;;;5032013;28;20073;-60
2023/05/15 10:34:42;;;;;;;12.90;4.00;;;;;;;;;;5032030;28;20394;-61
2023/05/15 10:37:14;;;;;;;9.45;3.65;;;;;;;;;;5031842;28;20046;-60
2023/05/15 10:39:46;;;;;;;12.25;3.50;;;;;;;;;;5031662;28;20140;-60
2023/05/15 10:42:17;;;;;;;11.57;4.60;;;;;;;;;;5031218;28;20041;-60
2023/05/15 10:44:49;;;;;;;9.77;4.38;;;;;;;;;;4996455;28;20721;-60
2023/05/15 10:47:20;;;;;;;10.18;4.22;;;;;;;;;;5031863;28;20041;-61
2023/05/15 10:49:50;;;;;;;9.85;4.32;;;;;;;;;;5014556;28;20041;-60
2023/05/15 10:52:21;;;;;;;17.10;4.50;;;;;;;;;;4948452;28;20057;-60
2023/05/15 10:54:53;;;;;;;12.75;4.18;;;;;;;;;;5031473;28;20041;-60
2023/05/15 10:57:23;;;;;;;10.25;3.70;;;;;;;;;;5031318;28;20053;-61
2023/05/15 10:59:53;;;;;;;10.20;4.38;;;;;;;;;;5031825;28;20053;-61
2023/05/15 11:02:28;;;;;;;12.02;4.88;;;;;;;;;;5031646;28;20401;-61
2023/05/15 11:05:02;;;;;;;15.60;5.53;;;;;;;;;;5031349;28;20413;-61
2023/05/15 11:07:33;;;;;;;18.52;5.50;;;;;;;;;;4980311;28;20080;-60
2023/05/15 11:10:27;;;;;;;15.10;5.47;;;;;;;;;;5031325;28;20045;-60
2023/05/15 11:12:58;;;;;;;13.25;4.90;;;;;;;;;;5031152;28;20048;-61
2023/05/15 11:15:42;;;;;;;13.00;5.50;;;;;;;;;;4965236;28;20058;-61
2023/05/15 11:18:12;;;;;;;11.27;5.68;;;;;;;;;;4979838;28;20545;-60
2023/05/15 11:20:52;;;;;;;13.25;5.93;;;;;;;;;;4980632;28;20045;-60
2023/05/15 11:23:24;;;;;;;12.63;5.85;;;;;;;;;;5031242;28;20486;-61
2023/05/15 11:26:00;;;;;;;17.35;5.88;;;;;;;;;;5031242;28;20689;-61
2023/05/15 11:28:30;;;;;;;11.63;6.50;;;;;;;;;;5030985;28;20049;-61
2023/05/15 11:31:05;;;;;;;10.27;5.60;;;;;;;;;;5031461;28;20056;-61
2023/05/15 11:33:38;;;;;;;10.15;5.25;;;;;;;;;;4981349;28;20053;-62
2023/05/15 11:36:10;;;;;;;11.43;4.72;;;;;;;;;;4996366;28;20478;-61
2023/05/15 11:38:40;;;;;;;11.30;5.47;;;;;;;;;;5031100;28;20038;-61
2023/05/15 11:41:20;;;;;;;12.45;5.65;;;;;;;;;;5030980;28;20389;-61
2023/05/15 11:43:50;;;;;;;;;;;;;;;;;;5031634;28;20046;-60
2023/05/15 11:46:20;;;;;;;11.63;5.38;;;;;;;;;;4980803;28;19929;-62
2023/05/15 11:48:51;;;;;;;18.00;5.40;;;;;;;;;;4949534;28;20057;-63
2023/05/15 11:51:26;;;;;;;13.52;5.57;;;;;;;;;;4995795;28;20417;-61
2023/05/15 11:53:58;;;;;;;15.80;5.68;;;;;;;;;;5031613;28;20057;-61
2023/05/15 11:56:28;;;;;;;13.40;5.55;;;;;;;;;;4983328;28;20563;-62
2023/05/15 11:59:01;;;;;;;9.80;4.60;;;;;;;;;;4999736;28;20072;-62
2023/05/15 12:01:46;;;;;;;12.27;4.72;;;;;;;;;;5034632;28;20046;-61
2023/05/15 12:04:17;;;;;;;11.82;5.32;;;;;;;;;;5034781;28;20049;-62
2023/05/15 12:06:48;;;;;;;12.15;4.88;;;;;;;;;;5034463;28;20044;-62
2023/05/15 12:09:21;;;;;;;13.30;5.07;;;;;;;;;;4985029;28;20065;-63
2023/05/15 12:11:53;;;;;;;10.60;4.90;;;;;;;;;;5000075;28;20054;-62
2023/05/15 12:14:30;;;;;;;19.30;5.72;;;;;;;;;;4983095;28;20060;-62
2023/05/15 12:17:04;;;;;;;16.00;5.55;;;;;;;;;;4999305;28;20056;-61
2023/05/15 12:19:36;;;;;;;13.57;6.50;;;;;;;;;;5034521;28;20056;-61
2023/05/15 12:22:07;;;;;;;16.27;6.57;;;;;;;;;;4951987;28;20061;-61
2023/05/15 12:24:38;;;;;;;14.52;6.63;;;;;;;;;;5016157;28;20417;-61
2023/05/15 12:27:09;;;;;;;12.25;6.70;;;;;;;;;;4999204;28;20049;-61
2023/05/15 12:29:40;;;;;;;15.15;8.05;;;;;;;;;;5034214;28;20049;-61
2023/05/15 12:32:11;;;;;;;20.88;7.30;;;;;;;;;;5034238;28;20060;-61
2023/05/15 12:34:41;;;;;;;14.18;6.20;;;;;;;;;;4999384;28;20049;-62
2023/05/15 12:37:14;;;;;;;16.70;7.07;;;;;;;;;;5015477;28;20057;-62
2023/05/15 12:39:55;;;;;;;14.88;6.15;;;;;;;;;;5034031;28;20370;-62
2023/05/15 12:42:25;;;;;;;13.30;5.30;;;;;;;;;;4998938;28;20065;-62
2023/05/15 12:44:56;;;;;;;13.88;5.90;;;;;;;;;;4991860;28;20438;-61
2023/05/15 12:47:27;;;;;;;10.57;4.78;;;;;;;;;;4992003;28;20058;-62
2023/05/15 12:49:57;;;;;;;16.50;5.72;;;;;;;;;;4991981;28;20062;-61
2023/05/15 12:52:31;;;;;;;12.88;5.57;;;;;;;;;;4991922;28;20463;-61
2023/05/15 12:55:01;;;;;;;10.75;5.07;;;;;;;;;;4960122;28;20065;-61
2023/05/15 12:57:32;;;;;;;13.05;4.95;;;;;;;;;;4975253;28;20584;-61
2023/05/15 13:00:04;;;;;;;11.43;5.50;;;;;;;;;;4991811;28;20058;-61
2023/05/15 13:02:34;;;;;;;15.15;5.10;;;;;;;;;;4943635;28;20062;-61
2023/05/15 13:05:06;;;;;;;12.85;5.25;;;;;;;;;;4971528;28;20050;-61
2023/05/15 13:07:37;;;;;;;12.05;5.30;;;;;;;;;;4971972;28;20055;-62
2023/05/15 13:10:08;;;;;;;9.05;4.78;;;;;;;;;;4955953;28;20456;-61
2023/05/15 13:12:45;;;;;;;10.95;4.72;;;;;;;;;;4972102;28;20054;-62
2023/05/15 13:15:35;;;;;;;10.40;4.75;;;;;;;;;;4947145;28;20062;-62
2023/05/15 13:18:06;;;;;;;11.88;5.05;;;;;;;;;;4978481;28;20398;-62
2023/05/15 13:20:47;;;;;;;13.05;5.65;;;;;;;;;;4978999;28;20065;-62
2023/05/15 13:23:19;;;;;;;11.80;4.90;;;;;;;;;;4962132;28;20065;-62
2023/05/15 13:25:49;;;;;;;17.05;5.22;;;;;;;;;;4978923;28;20115;-62
2023/05/15 13:28:19;;;;;;;11.77;5.53;;;;;;;;;;5010922;28;20045;-62
2023/05/15 13:30:50;;;;;;;54.50;25.73;;;;;;;;;;4963109;28;20065;-62
2023/05/15 13:33:20;;;;;;;11.30;6.60;;;;;;;;;;4978389;28;20077;-63
2023/05/15 13:35:50;;;;;;;11.73;6.18;;;;;;;;;;5017797;28;20064;-61
2023/05/15 13:38:20;;;;;;;12.75;4.82;;;;;;;;;;5033223;28;20497;-63
2023/05/15 13:40:50;;;;;;;9.18;5.18;;;;;;;;;;5032782;28;20045;-62
2023/05/15 13:43:21;;;;;;;11.55;6.70;;;;;;;;;;4998159;28;20053;-62
2023/05/15 13:45:54;;;;;;;8.73;4.78;;;;;;;;;;5032567;28;20052;-63
2023/05/15 13:48:25;;;;;;;12.75;5.82;;;;;;;;;;5033095;28;20053;-62
2023/05/15 13:50:55;;;;;;;11.98;5.75;;;;;;;;;;5032466;28;20042;-63
2023/05/15 13:53:25;;;;;;;13.55;6.47;;;;;;;;;;5032744;28;20048;-61
2023/05/15 13:55:56;;;;;;;16.15;6.32;;;;;;;;;;4965136;28;20045;-63
2023/05/15 13:58:26;;;;;;;11.43;6.90;;;;;;;;;;5032469;28;20041;-62
2023/05/15 14:00:56;;;;;;;10.50;5.75;;;;;;;;;;4990625;28;20055;-63
2023/05/15 14:03:26;;;;;;;14.15;6.68;;;;;;;;;;4957960;28;20515;-62
2023/05/15 14:05:57;;;;;;;11.98;6.10;;;;;;;;;;4974214;28;20054;-62
2023/05/15 14:08:28;;;;;;;12.68;5.45;;;;;;;;;;4973968;28;20073;-61
2023/05/15 14:10:58;;;;;;;12.27;5.63;;;;;;;;;;4958205;28;20051;-62
2023/05/15 14:13:30;;;;;;;11.27;5.53;;;;;;;;;;4990555;28;20057;-62
2023/05/15 14:16:03;;;;;;;7.65;3.40;;;;;;;;;;4990215;28;20194;-62
2023/05/15 14:18:33;;;;;;;13.77;5.47;;;;;;;;;;4941740;28;20503;-62
2023/05/15 14:21:03;;;;;;;9.48;4.78;;;;;;;;;;4990368;28;20046;-61
2023/05/15 14:23:35;;;;;;;14.23;7.80;;;;;;;;;;4990312;28;20050;-60
2023/05/15 14:26:05;;;;;;;10.77;4.65;;;;;;;;;;4943171;28;20066;-61
2023/05/15 14:28:35;;;;;;;12.23;5.40;;;;;;;;;;4990200;28;20402;-61
2023/05/15 14:31:05;;;;;;;11.40;6.00;;;;;;;;;;4958342;28;20058;-61
2023/05/15 14:33:35;;;;;;;11.07;5.15;;;;;;;;;;4990130;28;20642;-62
2023/05/15 14:36:06;;;;;;;9.25;4.57;;;;;;;;;;4942982;28;20054;-61
2023/05/15 14:38:38;;;;;;;11.77;5.97;;;;;;;;;;4994269;28;20049;-61
2023/05/15 14:41:08;;;;;;;13.25;6.32;;;;;;;;;;4997294;28;20521;-61
2023/05/15 14:43:38;;;;;;;13.80;5.43;;;;;;;;;;5031532;28;20056;-62
2023/05/15 14:46:08;;;;;;;13.05;6.53;;;;;;;;;;5031595;28;20489;-61
2023/05/15 14:48:39;;;;;;;13.15;5.35;;;;;;;;;;5031576;28;20045;-61
2023/05/15 14:51:10;;;;;;;8.15;4.40;;;;;;;;;;4995138;28;20050;-61
2023/05/15 14:53:42;;;;;;;9.20;4.95;;;;;;;;;;4955916;28;20064;-62
2023/05/15 14:56:12;;;;;;;12.02;4.57;;;;;;;;;;5007819;28;20057;-62
2023/05/15 14:58:42;;;;;;;12.77;5.93;;;;;;;;;;5031458;28;20056;-62
2023/05/15 15:01:12;;;;;;;12.65;4.15;;;;;;;;;;5031543;28;20051;-62
2023/05/15 15:03:43;;;;;;;7.45;4.68;;;;;;;;;;5031383;28;20052;-62
2023/05/15 15:06:14;;;;;;;12.48;4.63;;;;;;;;;;5031624;28;20394;-62
2023/05/15 15:08:46;;;;;;;8.50;4.45;;;;;;;;;;4997932;28;20402;-62